createdAt,value
2023-03-29T00:00:24.509Z,981.92
2023-03-29T00:00:52.227Z,981.92
2023-03-29T00:01:34.954Z,981.71
2023-03-29T00:01:54.387Z,981.71
2023-03-29T00:02:24.993Z,981.61
2023-03-29T00:02:56.190Z,981.61
2023-03-29T00:03:27.126Z,981.81
2023-03-29T00:04:00.348Z,981.81
2023-03-29T00:04:29.081Z,981.81
2023-03-29T00:05:02.033Z,981.81
2023-03-29T00:05:31.446Z,981.81
2023-03-29T00:06:02.880Z,981.81
2023-03-29T00:06:33.990Z,981.61
2023-03-29T00:07:04.788Z,981.92
2023-03-29T00:07:35.173Z,981.92
2023-03-29T00:08:06.534Z,981.71
2023-03-29T00:08:58.287Z,981.71
2023-03-29T00:09:08.385Z,981.61
2023-03-29T00:09:38.870Z,981.61
2023-03-29T00:10:11.499Z,981.71
2023-03-29T00:10:42.920Z,981.71
2023-03-29T00:11:22.279Z,981.61
2023-03-29T00:11:46.965Z,981.61
2023-03-29T00:12:38.024Z,981.71
2023-03-29T00:12:45.750Z,981.71
2023-03-29T00:13:19.069Z,981.61
2023-03-29T00:13:49.860Z,981.61
2023-03-29T00:14:18.630Z,981.61
2023-03-29T00:14:51.333Z,981.61
2023-03-29T00:15:21.829Z,981.61
2023-03-29T00:15:54.587Z,981.61
2023-03-29T00:16:23.732Z,981.61
2023-03-29T00:16:53.226Z,981.61
2023-03-29T00:17:25.931Z,981.61
2023-03-29T00:17:54.941Z,981.61
2023-03-29T00:18:26.011Z,981.71
2023-03-29T00:18:57.104Z,981.71
2023-03-29T00:19:28.156Z,981.71
2023-03-29T00:19:59.024Z,981.71
2023-03-29T00:20:30.750Z,981.61
2023-03-29T00:21:03.047Z,981.61
2023-03-29T00:21:49.738Z,981.61
2023-03-29T00:22:04.765Z,981.61
2023-03-29T00:22:35.070Z,981.71
2023-03-29T00:23:05.247Z,981.41
2023-03-29T00:23:36.401Z,981.41
2023-03-29T00:24:07.777Z,981.61
2023-03-29T00:24:37.805Z,981.61
2023-03-29T00:25:09.149Z,981.61
2023-03-29T00:25:40.846Z,981.61
2023-03-29T00:26:11.969Z,981.51
2023-03-29T00:26:42.966Z,981.51
2023-03-29T00:27:13.806Z,981.51
2023-03-29T00:27:44.874Z,981.51
2023-03-29T00:28:15.276Z,981.71
2023-03-29T00:28:46.408Z,981.71
2023-03-29T00:29:17.265Z,981.81
2023-03-29T00:29:47.899Z,981.81
2023-03-29T00:30:20.263Z,981.81
2023-03-29T00:30:51.064Z,981.81
2023-03-29T00:31:22.045Z,981.61
2023-03-29T00:31:53.216Z,981.61
2023-03-29T00:32:23.792Z,981.71
2023-03-29T00:32:55.195Z,981.71
2023-03-29T00:33:25.258Z,981.61
2023-03-29T00:33:55.895Z,981.61
2023-03-29T00:34:27.599Z,981.71
2023-03-29T00:34:58.173Z,981.71
2023-03-29T00:35:29.303Z,981.61
2023-03-29T00:36:01.158Z,981.61
2023-03-29T00:36:32.650Z,981.51
2023-03-29T00:37:03.267Z,981.51
2023-03-29T00:37:34.559Z,981.51
2023-03-29T00:38:04.919Z,981.51
2023-03-29T00:38:35.666Z,981.51
2023-03-29T00:39:06.465Z,981.71
2023-03-29T00:39:37.217Z,981.71
2023-03-29T00:40:08.618Z,981.41
2023-03-29T00:40:40.495Z,981.41
2023-03-29T00:41:10.605Z,981.51
2023-03-29T00:41:42.618Z,981.51
2023-03-29T00:42:13.261Z,981.41
2023-03-29T00:42:43.871Z,981.41
2023-03-29T00:43:14.782Z,981.71
2023-03-29T00:43:45.270Z,981.71
2023-03-29T00:44:20.395Z,981.81
2023-03-29T00:44:50.727Z,981.81
2023-03-29T00:45:43.702Z,981.61
2023-03-29T00:45:54.242Z,981.61
2023-03-29T00:46:24.703Z,981.71
2023-03-29T00:46:52.796Z,981.71
2023-03-29T00:47:24.832Z,981.51
2023-03-29T00:47:55.368Z,981.51
2023-03-29T00:48:29.637Z,981.61
2023-03-29T00:48:56.497Z,981.61
2023-03-29T00:49:26.860Z,981.61
2023-03-29T00:49:57.519Z,981.61
2023-03-29T00:50:28.505Z,981.31
2023-03-29T00:50:59.892Z,981.31
2023-03-29T00:51:31.035Z,981.61
2023-03-29T00:52:02.515Z,981.61
2023-03-29T00:52:33.230Z,981.41
2023-03-29T00:53:04.075Z,981.41
2023-03-29T00:53:34.480Z,981.51
2023-03-29T00:54:05.725Z,981.41
2023-03-29T00:54:36.380Z,981.41
2023-03-29T00:55:38.357Z,981.41
2023-03-29T00:56:09.407Z,981.31
2023-03-29T00:56:41.833Z,981.31
2023-03-29T00:57:12.595Z,981.51
2023-03-29T00:57:43.193Z,981.51
2023-03-29T00:58:14.796Z,981.41
2023-03-29T00:58:44.752Z,981.41
2023-03-29T00:59:16.161Z,981.41
2023-03-29T00:59:46.594Z,981.41
2023-03-29T01:00:18.824Z,981.20
2023-03-29T01:01:15.794Z,981.41
2023-03-29T01:01:44.137Z,981.41
2023-03-29T01:02:15.426Z,981.51
2023-03-29T01:02:45.608Z,981.51
2023-03-29T01:03:15.746Z,981.41
2023-03-29T01:03:47.119Z,981.41
2023-03-29T01:04:17.516Z,981.51
2023-03-29T01:04:48.571Z,981.51
2023-03-29T01:05:19.235Z,981.51
2023-03-29T01:05:51.421Z,981.51
2023-03-29T01:06:22.544Z,981.31
2023-03-29T01:06:53.600Z,981.31
2023-03-29T01:07:24.603Z,981.31
2023-03-29T01:07:54.905Z,981.31
2023-03-29T01:08:26.136Z,981.20
2023-03-29T01:08:56.775Z,981.20
2023-03-29T01:09:27.559Z,981.41
2023-03-29T01:09:58.641Z,981.41
2023-03-29T01:10:30.025Z,981.20
2023-03-29T01:11:01.867Z,981.20
2023-03-29T01:11:33.077Z,981.31
2023-03-29T01:12:03.320Z,981.31
2023-03-29T01:12:34.167Z,981.20
2023-03-29T01:13:04.924Z,981.20
2023-03-29T01:13:35.789Z,981.20
2023-03-29T01:14:06.479Z,981.10
2023-03-29T01:14:37.786Z,981.10
2023-03-29T01:15:10.855Z,981.20
2023-03-29T01:15:39.550Z,981.20
2023-03-29T01:16:11.064Z,981.20
2023-03-29T01:16:43.048Z,981.20
2023-03-29T01:17:14.082Z,981.20
2023-03-29T01:17:45.835Z,981.20
2023-03-29T01:18:17.554Z,981.00
2023-03-29T01:18:48.511Z,981.00
2023-03-29T01:19:18.004Z,981.20
2023-03-29T01:19:49.022Z,981.20
2023-03-29T01:20:19.084Z,981.10
2023-03-29T01:20:54.512Z,981.10
2023-03-29T01:21:22.089Z,981.10
2023-03-29T01:21:53.276Z,981.10
2023-03-29T01:22:24.283Z,980.90
2023-03-29T01:22:55.268Z,980.90
2023-03-29T01:23:26.836Z,980.90
2023-03-29T01:23:56.738Z,980.90
2023-03-29T01:24:27.020Z,981.00
2023-03-29T01:24:57.643Z,981.00
2023-03-29T01:25:29.110Z,981.00
2023-03-29T01:25:59.799Z,981.00
2023-03-29T01:26:30.727Z,980.90
2023-03-29T01:27:02.114Z,980.90
2023-03-29T01:27:33.367Z,980.80
2023-03-29T01:28:04.615Z,980.80
2023-03-29T01:28:34.749Z,981.20
2023-03-29T01:29:06.866Z,981.00
2023-03-29T01:29:37.749Z,981.00
2023-03-29T01:30:09.630Z,980.80
2023-03-29T01:30:41.306Z,980.80
2023-03-29T01:31:10.301Z,980.90
2023-03-29T01:31:41.019Z,980.90
2023-03-29T01:32:19.226Z,980.90
2023-03-29T01:32:43.721Z,980.90
2023-03-29T01:33:50.070Z,980.90
2023-03-29T01:34:16.945Z,980.80
2023-03-29T01:34:48.502Z,980.80
2023-03-29T01:35:18.256Z,980.80
2023-03-29T01:35:48.500Z,980.80
2023-03-29T01:36:20.008Z,980.80
2023-03-29T01:36:50.803Z,980.80
2023-03-29T01:37:21.913Z,980.70
2023-03-29T01:37:53.002Z,980.70
2023-03-29T01:38:24.674Z,980.59
2023-03-29T01:38:55.363Z,980.59
2023-03-29T01:39:57.000Z,980.70
2023-03-29T01:40:27.921Z,980.80
2023-03-29T01:40:58.928Z,980.80
2023-03-29T01:41:30.151Z,980.59
2023-03-29T01:42:01.231Z,980.59
2023-03-29T01:42:31.577Z,980.70
2023-03-29T01:43:03.374Z,980.70
2023-03-29T01:43:34.172Z,980.59
2023-03-29T01:44:05.303Z,980.49
2023-03-29T01:44:36.150Z,980.49
2023-03-29T01:45:07.939Z,980.49
2023-03-29T01:45:37.823Z,980.49
2023-03-29T01:46:09.311Z,980.70
2023-03-29T01:46:39.477Z,980.70
2023-03-29T01:47:11.828Z,980.49
2023-03-29T01:47:41.672Z,980.49
2023-03-29T01:48:13.584Z,980.59
2023-03-29T01:48:44.078Z,980.59
2023-03-29T01:49:15.128Z,980.49
2023-03-29T01:49:46.236Z,980.49
2023-03-29T01:50:17.826Z,980.59
2023-03-29T01:50:47.748Z,980.59
2023-03-29T01:51:20.099Z,980.70
2023-03-29T01:51:50.250Z,980.70
2023-03-29T01:52:21.050Z,980.39
2023-03-29T01:52:51.827Z,980.39
2023-03-29T01:53:23.575Z,980.59
2023-03-29T01:53:54.458Z,980.59
2023-03-29T01:54:25.392Z,980.49
2023-03-29T01:54:55.857Z,980.49
2023-03-29T01:55:27.432Z,980.70
2023-03-29T01:55:57.623Z,980.70
2023-03-29T01:56:28.375Z,980.59
2023-03-29T01:56:59.797Z,980.59
2023-03-29T01:57:30.582Z,980.39
2023-03-29T01:58:01.507Z,980.39
2023-03-29T01:58:32.926Z,980.49
2023-03-29T01:59:04.608Z,980.49
2023-03-29T01:59:35.156Z,980.59
2023-03-29T02:00:05.521Z,980.29
2023-03-29T02:00:36.699Z,980.29
2023-03-29T02:01:07.748Z,980.39
2023-03-29T02:01:38.474Z,980.39
2023-03-29T02:02:09.768Z,980.49
2023-03-29T02:02:40.525Z,980.49
2023-03-29T02:03:11.892Z,980.29
2023-03-29T02:03:42.950Z,980.29
2023-03-29T02:04:14.567Z,980.29
2023-03-29T02:04:45.122Z,980.29
2023-03-29T02:05:16.405Z,980.49
2023-03-29T02:05:47.283Z,980.49
2023-03-29T02:06:17.580Z,980.49
2023-03-29T02:07:19.755Z,980.29
2023-03-29T02:07:50.624Z,980.29
2023-03-29T02:08:21.361Z,980.39
2023-03-29T02:08:52.858Z,980.39
2023-03-29T02:09:24.554Z,980.29
2023-03-29T02:09:55.550Z,980.29
2023-03-29T02:10:26.506Z,980.39
2023-03-29T02:10:56.652Z,980.39
2023-03-29T02:11:27.445Z,980.39
2023-03-29T02:11:58.070Z,980.39
2023-03-29T02:12:29.460Z,980.29
2023-03-29T02:13:01.069Z,980.29
2023-03-29T02:13:31.457Z,980.29
2023-03-29T02:14:02.885Z,980.29
2023-03-29T02:14:34.719Z,980.29
2023-03-29T02:15:06.178Z,980.19
2023-03-29T02:15:35.919Z,980.19
2023-03-29T02:16:07.157Z,980.29
2023-03-29T02:16:37.089Z,980.29
2023-03-29T02:17:08.617Z,980.19
2023-03-29T02:17:39.385Z,980.19
2023-03-29T02:18:10.780Z,980.19
2023-03-29T02:18:41.186Z,980.19
2023-03-29T02:19:12.766Z,980.19
2023-03-29T02:19:43.871Z,980.19
2023-03-29T02:20:15.467Z,980.39
2023-03-29T02:20:46.158Z,980.39
2023-03-29T02:21:17.048Z,980.19
2023-03-29T02:21:47.772Z,980.19
2023-03-29T02:22:18.294Z,980.19
2023-03-29T02:22:49.915Z,980.19
2023-03-29T02:23:20.754Z,980.29
2023-03-29T02:23:52.004Z,980.29
2023-03-29T02:24:22.416Z,980.09
2023-03-29T02:24:53.993Z,980.09
2023-03-29T02:25:25.737Z,980.29
2023-03-29T02:25:56.076Z,980.29
2023-03-29T02:26:44.484Z,980.29
2023-03-29T02:26:57.510Z,980.29
2023-03-29T02:27:28.308Z,980.19
2023-03-29T02:27:59.428Z,980.19
2023-03-29T02:28:30.636Z,980.29
2023-03-29T02:29:01.860Z,980.29
2023-03-29T02:29:32.353Z,980.09
2023-03-29T02:30:03.643Z,980.09
2023-03-29T02:30:35.622Z,980.19
2023-03-29T02:31:06.316Z,980.19
2023-03-29T02:31:36.722Z,980.19
2023-03-29T02:32:07.883Z,980.29
2023-03-29T02:32:38.490Z,980.29
2023-03-29T02:33:10.130Z,980.19
2023-03-29T02:33:40.595Z,980.19
2023-03-29T02:34:11.928Z,980.29
2023-03-29T02:34:42.588Z,980.29
2023-03-29T02:35:31.073Z,979.99
2023-03-29T02:35:46.003Z,979.99
2023-03-29T02:36:16.840Z,980.09
2023-03-29T02:36:47.190Z,980.09
2023-03-29T02:37:17.783Z,979.88
2023-03-29T02:37:48.454Z,979.88
2023-03-29T02:38:19.464Z,979.88
2023-03-29T02:38:50.618Z,979.88
2023-03-29T02:39:21.497Z,980.19
2023-03-29T02:39:52.554Z,980.19
2023-03-29T02:40:25.356Z,979.99
2023-03-29T02:40:55.441Z,979.99
2023-03-29T02:41:26.532Z,979.99
2023-03-29T02:41:57.205Z,979.99
2023-03-29T02:42:27.852Z,979.71
2023-03-29T02:42:58.526Z,979.71
2023-03-29T02:43:29.466Z,979.99
2023-03-29T02:44:35.870Z,979.99
2023-03-29T02:44:38.889Z,979.99
2023-03-29T02:45:03.238Z,979.99
2023-03-29T02:45:34.739Z,980.09
2023-03-29T02:46:06.076Z,979.99
2023-03-29T02:47:07.243Z,979.99
2023-03-29T02:47:40.407Z,979.99
2023-03-29T02:48:08.827Z,979.99
2023-03-29T02:48:40.349Z,979.99
2023-03-29T02:49:10.909Z,979.99
2023-03-29T02:49:41.407Z,979.99
2023-03-29T02:50:12.813Z,979.99
2023-03-29T02:50:43.564Z,979.99
2023-03-29T02:51:16.816Z,979.99
2023-03-29T02:51:47.365Z,979.99
2023-03-29T02:52:17.445Z,980.09
2023-03-29T02:52:47.882Z,980.09
2023-03-29T02:53:36.626Z,979.88
2023-03-29T02:53:49.519Z,979.88
2023-03-29T02:54:51.764Z,979.88
2023-03-29T02:55:24.440Z,979.78
2023-03-29T02:55:54.408Z,979.78
2023-03-29T02:56:25.486Z,979.88
2023-03-29T02:56:56.361Z,979.88
2023-03-29T02:57:27.338Z,979.78
2023-03-29T02:58:28.623Z,979.99
2023-03-29T02:58:59.339Z,979.99
2023-03-29T02:59:30.570Z,979.88
2023-03-29T03:00:33.010Z,979.71
2023-03-29T03:01:03.977Z,979.71
2023-03-29T03:01:35.937Z,979.78
2023-03-29T03:02:06.838Z,979.71
2023-03-29T03:02:37.277Z,979.71
2023-03-29T03:03:08.080Z,979.78
2023-03-29T03:03:48.776Z,979.78
2023-03-29T03:04:09.645Z,979.78
2023-03-29T03:04:40.934Z,979.78
2023-03-29T03:05:11.772Z,979.71
2023-03-29T03:05:42.589Z,979.71
2023-03-29T03:06:13.873Z,979.88
2023-03-29T03:06:45.069Z,979.88
2023-03-29T03:07:17.177Z,979.99
2023-03-29T03:07:47.702Z,979.99
2023-03-29T03:08:17.831Z,979.78
2023-03-29T03:08:48.924Z,979.78
2023-03-29T03:09:19.439Z,979.88
2023-03-29T03:09:51.260Z,979.88
2023-03-29T03:10:21.954Z,979.78
2023-03-29T03:10:52.616Z,979.78
2023-03-29T03:11:23.360Z,979.88
2023-03-29T03:11:55.555Z,979.88
2023-03-29T03:12:27.363Z,979.61
2023-03-29T03:12:57.531Z,979.61
2023-03-29T03:13:28.161Z,979.78
2023-03-29T03:13:58.746Z,979.78
2023-03-29T03:14:29.612Z,979.78
2023-03-29T03:15:01.381Z,979.78
2023-03-29T03:15:31.470Z,979.88
2023-03-29T03:16:34.154Z,979.88
2023-03-29T03:17:05.753Z,979.71
2023-03-29T03:17:36.482Z,979.71
2023-03-29T03:18:38.377Z,979.71
2023-03-29T03:19:09.031Z,979.78
2023-03-29T03:19:39.629Z,979.78
2023-03-29T03:20:11.062Z,979.78
2023-03-29T03:20:42.052Z,979.78
2023-03-29T03:21:12.679Z,979.78
2023-03-29T03:21:43.808Z,979.78
2023-03-29T03:22:15.869Z,979.71
2023-03-29T03:22:46.910Z,979.71
2023-03-29T03:23:17.841Z,979.78
2023-03-29T03:23:48.190Z,979.78
2023-03-29T03:24:19.061Z,979.51
2023-03-29T03:24:50.033Z,979.51
2023-03-29T03:25:21.443Z,979.88
2023-03-29T03:25:52.316Z,979.88
2023-03-29T03:26:22.841Z,979.71
2023-03-29T03:26:55.032Z,979.71
2023-03-29T03:27:25.904Z,979.61
2023-03-29T03:28:27.603Z,979.71
2023-03-29T03:28:58.064Z,979.71
2023-03-29T03:29:28.967Z,979.71
2023-03-29T03:29:59.632Z,979.71
2023-03-29T03:30:31.131Z,979.71
2023-03-29T03:31:01.938Z,979.71
2023-03-29T03:31:32.619Z,979.78
2023-03-29T03:32:17.794Z,979.71
2023-03-29T03:32:36.108Z,979.71
2023-03-29T03:33:07.139Z,979.61
2023-03-29T03:33:37.630Z,979.61
2023-03-29T03:34:08.641Z,979.71
2023-03-29T03:34:39.430Z,979.71
2023-03-29T03:35:09.973Z,979.78
2023-03-29T03:35:41.032Z,979.78
2023-03-29T03:36:11.805Z,979.78
2023-03-29T03:36:42.784Z,979.78
2023-03-29T03:37:13.599Z,979.71
2023-03-29T03:37:45.882Z,979.71
2023-03-29T03:38:23.190Z,979.71
2023-03-29T03:38:47.874Z,979.71
2023-03-29T03:39:18.522Z,979.71
2023-03-29T03:39:48.949Z,979.71
2023-03-29T03:40:20.324Z,979.61
2023-03-29T03:41:21.903Z,979.78
2023-03-29T03:41:52.711Z,979.78
2023-03-29T03:42:24.072Z,979.71
2023-03-29T03:42:55.066Z,979.71
2023-03-29T03:43:57.412Z,979.78
2023-03-29T03:44:28.230Z,980.09
2023-03-29T03:44:58.749Z,980.09
2023-03-29T03:45:30.050Z,979.51
2023-03-29T03:46:01.003Z,979.51
2023-03-29T03:46:31.662Z,979.71
2023-03-29T03:47:02.560Z,979.71
2023-03-29T03:47:33.719Z,979.78
2023-03-29T03:48:05.448Z,979.71
2023-03-29T03:48:36.913Z,979.71
2023-03-29T03:49:07.810Z,979.61
2023-03-29T03:49:38.516Z,979.61
2023-03-29T03:50:09.801Z,979.61
2023-03-29T03:50:39.690Z,979.61
2023-03-29T03:51:10.861Z,979.61
2023-03-29T03:51:41.945Z,979.61
2023-03-29T03:52:12.872Z,979.71
2023-03-29T03:52:43.612Z,979.71
2023-03-29T03:53:15.903Z,979.78
2023-03-29T03:53:47.478Z,979.78
2023-03-29T03:54:17.735Z,979.51
2023-03-29T03:55:19.748Z,979.61
2023-03-29T03:55:50.407Z,979.61
2023-03-29T03:56:20.952Z,979.61
2023-03-29T03:56:51.871Z,979.61
2023-03-29T03:57:23.716Z,979.61
2023-03-29T03:57:53.803Z,979.61
2023-03-29T03:58:26.677Z,979.41
2023-03-29T03:58:56.720Z,979.41
2023-03-29T03:59:27.717Z,979.71
2023-03-29T03:59:58.337Z,979.71
2023-03-29T04:00:28.984Z,979.51
2023-03-29T04:01:00.595Z,979.51
2023-03-29T04:01:31.209Z,979.51
2023-03-29T04:02:02.097Z,979.51
2023-03-29T04:02:32.921Z,979.41
2023-03-29T04:03:04.118Z,979.41
2023-03-29T04:03:35.598Z,979.61
2023-03-29T04:04:06.603Z,979.51
2023-03-29T04:04:37.944Z,979.51
2023-03-29T04:05:08.803Z,979.51
2023-03-29T04:05:40.105Z,979.51
2023-03-29T04:06:11.219Z,979.61
2023-03-29T04:06:43.556Z,979.61
2023-03-29T04:07:11.906Z,979.41
2023-03-29T04:07:42.836Z,979.41
2023-03-29T04:08:14.022Z,979.51
2023-03-29T04:08:45.018Z,979.51
2023-03-29T04:09:47.907Z,979.41
2023-03-29T04:10:18.647Z,979.61
2023-03-29T04:11:06.856Z,979.51
2023-03-29T04:11:20.380Z,979.51
2023-03-29T04:11:51.663Z,979.51
2023-03-29T04:12:22.190Z,979.41
2023-03-29T04:12:52.610Z,979.41
2023-03-29T04:13:23.880Z,979.41
2023-03-29T04:14:12.030Z,979.31
2023-03-29T04:14:26.597Z,979.31
2023-03-29T04:14:57.838Z,979.31
2023-03-29T04:15:29.221Z,979.41
2023-03-29T04:16:01.520Z,979.41
2023-03-29T04:16:30.003Z,979.41
2023-03-29T04:17:01.590Z,979.41
2023-03-29T04:17:32.027Z,979.61
2023-03-29T04:18:02.920Z,979.61
2023-03-29T04:18:34.253Z,979.31
2023-03-29T04:19:05.070Z,979.51
2023-03-29T04:19:36.152Z,979.51
2023-03-29T04:20:08.552Z,979.21
2023-03-29T04:20:38.993Z,979.21
2023-03-29T04:21:09.893Z,979.61
2023-03-29T04:21:40.244Z,979.61
2023-03-29T04:22:10.685Z,979.21
2023-03-29T04:23:12.681Z,979.51
2023-03-29T04:23:44.096Z,979.51
2023-03-29T04:24:15.147Z,979.31
2023-03-29T04:24:46.161Z,979.31
2023-03-29T04:25:17.606Z,979.31
2023-03-29T04:25:48.603Z,979.31
2023-03-29T04:26:20.007Z,979.00
2023-03-29T04:26:49.903Z,979.00
2023-03-29T04:27:21.249Z,979.21
2023-03-29T04:27:53.958Z,979.21
2023-03-29T04:28:22.893Z,979.31
2023-03-29T04:28:54.535Z,979.31
2023-03-29T04:29:25.016Z,979.21
2023-03-29T04:29:55.832Z,979.21
2023-03-29T04:30:28.112Z,979.31
2023-03-29T04:30:58.080Z,979.31
2023-03-29T04:31:29.964Z,979.31
2023-03-29T04:32:00.745Z,979.31
2023-03-29T04:32:31.629Z,979.21
2023-03-29T04:33:02.299Z,979.21
2023-03-29T04:33:33.091Z,979.00
2023-03-29T04:34:04.433Z,979.00
2023-03-29T04:34:34.911Z,979.41
2023-03-29T04:35:07.177Z,979.31
2023-03-29T04:35:38.174Z,979.31
2023-03-29T04:36:09.041Z,979.51
2023-03-29T04:36:39.351Z,979.51
2023-03-29T04:37:45.654Z,979.51
2023-03-29T04:37:58.858Z,979.51
2023-03-29T04:38:11.987Z,979.41
2023-03-29T04:38:47.334Z,979.41
2023-03-29T04:39:14.043Z,979.31
2023-03-29T04:39:44.933Z,979.31
2023-03-29T04:40:16.951Z,979.10
2023-03-29T04:40:48.132Z,979.10
2023-03-29T04:41:19.401Z,979.21
2023-03-29T04:41:49.515Z,979.21
2023-03-29T04:42:20.269Z,979.31
2023-03-29T04:42:51.188Z,979.31
2023-03-29T04:43:21.900Z,979.21
2023-03-29T04:43:53.126Z,979.21
2023-03-29T04:44:24.072Z,979.41
2023-03-29T04:44:54.921Z,979.41
2023-03-29T04:45:29.815Z,979.21
2023-03-29T04:45:57.910Z,979.21
2023-03-29T04:46:29.113Z,979.10
2023-03-29T04:46:59.595Z,979.10
2023-03-29T04:47:30.142Z,979.10
2023-03-29T04:48:02.533Z,979.10
2023-03-29T04:48:32.372Z,979.31
2023-03-29T04:49:03.214Z,979.31
2023-03-29T04:49:33.954Z,979.21
2023-03-29T04:50:05.779Z,979.31
2023-03-29T04:50:36.061Z,979.31
2023-03-29T04:51:08.243Z,979.10
2023-03-29T04:51:39.134Z,979.10
2023-03-29T04:52:09.288Z,979.00
2023-03-29T04:52:40.066Z,979.00
2023-03-29T04:53:11.411Z,979.41
2023-03-29T04:53:59.953Z,979.41
2023-03-29T04:54:13.160Z,979.10
2023-03-29T04:54:44.103Z,979.10
2023-03-29T04:55:15.010Z,979.21
2023-03-29T04:55:46.471Z,979.21
2023-03-29T04:56:17.757Z,979.21
2023-03-29T04:56:49.146Z,979.21
2023-03-29T04:57:20.220Z,979.31
2023-03-29T04:57:51.313Z,979.31
2023-03-29T04:58:23.409Z,979.31
2023-03-29T04:58:52.012Z,979.31
2023-03-29T04:59:23.028Z,979.10
2023-03-29T04:59:54.048Z,979.10
2023-03-29T05:00:26.684Z,979.10
2023-03-29T05:00:56.197Z,979.10
2023-03-29T05:01:29.081Z,979.10
2023-03-29T05:02:30.332Z,979.00
2023-03-29T05:03:00.565Z,979.00
2023-03-29T05:04:03.392Z,979.10
2023-03-29T05:04:33.468Z,979.21
2023-03-29T05:05:35.389Z,979.10
2023-03-29T05:06:06.257Z,978.90
2023-03-29T05:06:38.104Z,978.90
2023-03-29T05:07:09.997Z,979.21
2023-03-29T05:07:40.412Z,979.21
2023-03-29T05:08:11.138Z,979.10
2023-03-29T05:08:41.894Z,979.10
2023-03-29T05:09:12.194Z,979.10
2023-03-29T05:09:43.234Z,979.10
2023-03-29T05:10:15.628Z,978.90
2023-03-29T05:10:45.679Z,978.90
2023-03-29T05:11:17.282Z,978.90
2023-03-29T05:11:48.009Z,978.90
2023-03-29T05:12:19.364Z,978.90
2023-03-29T05:12:49.927Z,978.90
2023-03-29T05:13:21.000Z,979.00
2023-03-29T05:13:51.039Z,979.00
2023-03-29T05:14:22.159Z,979.10
2023-03-29T05:14:56.307Z,979.10
2023-03-29T05:15:41.361Z,979.00
2023-03-29T05:15:54.882Z,979.00
2023-03-29T05:16:30.718Z,979.10
2023-03-29T05:16:58.512Z,979.10
2023-03-29T05:17:29.308Z,979.10
2023-03-29T05:17:59.961Z,979.10
2023-03-29T05:18:33.976Z,979.10
2023-03-29T05:19:01.341Z,979.10
2023-03-29T05:19:32.451Z,979.00
2023-03-29T05:20:03.249Z,979.00
2023-03-29T05:20:35.229Z,979.00
2023-03-29T05:21:43.737Z,979.00
2023-03-29T05:22:08.304Z,979.00
2023-03-29T05:22:39.522Z,979.00
2023-03-29T05:23:10.326Z,979.00
2023-03-29T05:23:40.965Z,979.00
2023-03-29T05:24:12.143Z,978.90
2023-03-29T05:24:42.196Z,978.90
2023-03-29T05:25:13.850Z,979.10
2023-03-29T05:25:44.262Z,979.10
2023-03-29T05:26:15.321Z,979.10
2023-03-29T05:26:46.288Z,979.10
2023-03-29T05:27:18.238Z,979.21
2023-03-29T05:27:49.496Z,979.21
2023-03-29T05:28:20.114Z,979.10
2023-03-29T05:29:21.614Z,978.90
2023-03-29T05:29:52.300Z,978.90
2023-03-29T05:30:23.807Z,979.00
2023-03-29T05:30:54.388Z,979.00
2023-03-29T05:31:25.493Z,979.10
2023-03-29T05:32:27.566Z,978.90
2023-03-29T05:32:59.966Z,978.90
2023-03-29T05:33:30.297Z,979.00
2023-03-29T05:34:01.365Z,979.00
2023-03-29T05:34:32.165Z,978.80
2023-03-29T05:35:02.957Z,978.80
2023-03-29T05:35:33.477Z,978.80
2023-03-29T05:36:04.769Z,978.80
2023-03-29T05:36:35.382Z,979.00
2023-03-29T05:37:06.059Z,979.00
2023-03-29T05:37:37.905Z,979.00
2023-03-29T05:38:10.003Z,978.90
2023-03-29T05:38:40.489Z,978.90
2023-03-29T05:39:11.644Z,979.00
2023-03-29T05:40:05.583Z,979.00
2023-03-29T05:40:12.948Z,979.00
2023-03-29T05:40:43.368Z,979.00
2023-03-29T05:41:14.427Z,978.80
2023-03-29T05:41:45.093Z,978.80
2023-03-29T05:42:16.892Z,978.90
2023-03-29T05:42:47.813Z,978.90
2023-03-29T05:43:19.515Z,978.80
2023-03-29T05:43:50.085Z,978.80
2023-03-29T05:44:20.590Z,978.90
2023-03-29T05:44:54.038Z,978.90
2023-03-29T05:46:14.824Z,979.00
2023-03-29T05:46:24.311Z,979.00
2023-03-29T05:46:56.515Z,979.00
2023-03-29T05:47:26.852Z,978.90
2023-03-29T05:47:57.960Z,978.90
2023-03-29T05:48:29.644Z,978.80
2023-03-29T05:49:40.516Z,979.00
2023-03-29T05:50:02.392Z,979.00
2023-03-29T05:50:32.750Z,979.00
2023-03-29T05:51:03.535Z,979.00
2023-03-29T05:51:34.243Z,979.00
2023-03-29T05:52:05.321Z,979.10
2023-03-29T05:53:07.867Z,979.10
2023-03-29T05:53:38.924Z,979.10
2023-03-29T05:54:10.130Z,979.10
2023-03-29T05:54:40.863Z,979.10
2023-03-29T05:55:11.468Z,978.80
2023-03-29T05:55:42.496Z,978.80
2023-03-29T05:56:13.132Z,978.90
2023-03-29T05:56:44.584Z,978.90
2023-03-29T05:57:15.836Z,979.00
2023-03-29T05:57:46.813Z,979.00
2023-03-29T05:58:18.294Z,979.10
2023-03-29T05:58:49.671Z,979.10
2023-03-29T05:59:21.928Z,978.90
2023-03-29T05:59:53.370Z,978.90
2023-03-29T06:00:24.962Z,979.10
2023-03-29T06:00:53.247Z,979.10
2023-03-29T06:01:38.716Z,978.90
2023-03-29T06:02:25.899Z,979.00
2023-03-29T06:03:06.417Z,979.00
2023-03-29T06:03:46.508Z,978.90
2023-03-29T06:03:58.110Z,978.90
2023-03-29T06:04:32.794Z,979.00
2023-03-29T06:05:02.446Z,979.00
2023-03-29T06:05:32.410Z,978.90
2023-03-29T06:06:21.693Z,978.80
2023-03-29T06:06:34.501Z,978.80
2023-03-29T06:07:04.045Z,979.00
2023-03-29T06:07:35.309Z,979.00
2023-03-29T06:08:06.643Z,978.80
2023-03-29T06:08:37.938Z,978.80
2023-03-29T06:09:09.448Z,979.10
2023-03-29T06:09:40.460Z,979.10
2023-03-29T06:10:12.777Z,978.70
2023-03-29T06:10:43.492Z,978.70
2023-03-29T06:11:12.879Z,978.90
2023-03-29T06:11:43.265Z,978.90
2023-03-29T06:12:14.853Z,978.80
2023-03-29T06:13:21.281Z,978.80
2023-03-29T06:14:27.679Z,978.80
2023-03-29T06:15:34.181Z,978.80
2023-03-29T06:16:42.692Z,978.80
2023-03-29T06:17:49.474Z,978.80
2023-03-29T06:18:55.806Z,978.80
2023-03-29T06:20:02.242Z,978.80
2023-03-29T06:21:08.849Z,978.80
2023-03-29T06:22:15.337Z,978.80
2023-03-29T06:23:21.752Z,978.80
2023-03-29T06:24:28.077Z,978.80
2023-03-29T06:25:34.358Z,978.80
2023-03-29T06:26:40.682Z,978.80
2023-03-29T06:27:47.060Z,978.80
2023-03-29T06:28:53.537Z,978.80
2023-03-29T06:29:59.904Z,978.80
2023-03-29T06:31:06.578Z,978.80
2023-03-29T06:31:26.546Z,978.60
2023-03-29T06:31:31.567Z,978.60
2023-03-29T06:31:34.145Z,978.60
2023-03-29T06:31:37.933Z,978.60
2023-03-29T06:31:42.004Z,978.60
2023-03-29T06:32:23.785Z,978.60
2023-03-29T06:32:54.837Z,978.60
2023-03-29T06:33:26.249Z,978.90
2023-03-29T06:33:56.545Z,978.90
2023-03-29T06:34:27.842Z,978.80
2023-03-29T06:34:59.584Z,978.80
2023-03-29T06:35:30.280Z,978.80
2023-03-29T06:36:03.312Z,978.80
2023-03-29T06:36:32.042Z,978.90
2023-03-29T06:37:03.121Z,978.90
2023-03-29T06:37:33.737Z,978.60
2023-03-29T06:38:04.653Z,978.80
2023-03-29T06:38:35.424Z,978.80
2023-03-29T06:39:07.007Z,978.80
2023-03-29T06:39:37.920Z,978.80
2023-03-29T06:40:08.948Z,978.70
2023-03-29T06:41:15.478Z,978.70
2023-03-29T06:41:28.179Z,978.80
2023-03-29T06:42:20.649Z,978.80
2023-03-29T06:42:43.359Z,978.80
2023-03-29T06:43:14.756Z,978.70
2023-03-29T06:43:45.595Z,978.70
2023-03-29T06:44:17.033Z,978.80
2023-03-29T06:44:47.644Z,978.80
2023-03-29T06:45:21.203Z,978.80
2023-03-29T06:45:50.376Z,978.80
2023-03-29T06:46:22.568Z,978.80
2023-03-29T06:46:52.513Z,978.80
2023-03-29T06:47:23.010Z,978.90
2023-03-29T06:47:53.638Z,978.90
2023-03-29T06:48:24.405Z,978.80
2023-03-29T06:48:55.534Z,978.80
2023-03-29T06:49:26.749Z,978.80